Sign in:
Email
 Password  save:
  
 Company Reports 
 
   
My Recent Searches
  Help
 
   
 
 
Get Institutions for : 
Liberty Media Interactive (LINTA)    
$28.99 0.12 (0.42%) as of 4:30 Fri 9/19


Download
     
Institutional Holders
Viewing Quarter :
  
Total Institutions: 408    9
Total shares held : 
403,806,073  
% of shares held : 
72.28%  
Changes In:
New/increased positions vs   
old/decreased positions : 
  -19  
Amount of shares held : 
-30,302,253  
% of shares held change : 
  -5.42%  
Quarter Price vs. Current Price:
Last Quarter's Starting Price
$29.83  
Last Quarter's Ending Price : 
$29.36  
Last Quarter's Average Price
$29.08  
Change from last quarter's     
avg. price to the last closing  : 
0.09 (0.31%)  




 
All Securities Held :
Positions
     Shares
% Of
Total Shares
New Positions :
37
 6,453,730
 1.6%
 
Increased Positions :
126
 18,269,860
 4.52%
 
Unchanged Positions :
91
 43,674,081
 10.82%
 
Decreased Positions :
154
-45,289,159
-11.22%
 
Closed Positions :
28
-9,736,684
-2.41%
 
Guru Positions :
2
28,334,251
 7.02%
 
View holdings for period: 
9-30-2012 View holdings for period: 
12-31-2012 View holdings for period: 
3-31-2013 View holdings for period: 
6-30-2013 View holdings for period: 
9-30-2013 View holdings for period: 
12-31-2013 View holdings for period: 
3-31-2014 View holdings for the current period

  Page 1 of 1  
Free Registration Required For Full Results


            Institution Name
Portfolio
Position
New/Closed
Position

Filing Date

Total Shares

Total Value

Change in Shares

File
   Jackson Square Partners LLC 13 - 2014-06-30 28,312,529 $831,256,000 0
   HARRIS ASSOCIATES L P 26 - 2014-06-30 23,986,322 $704,238,000 372,243
   DODGE & COX -- Notable Guru -- 51 - 2014-06-30 23,176,986 $680,476,000 -69,700
   FMR LLC 265 - 2014-06-30 21,698,874 $637,079,000 -663,340
   BROWN BROTHERS HARRIMAN & CO 21 - 2014-06-30 20,384,489 $598,489,000 218,687
   CLEARBRIDGE ADVISORS LLC 49 - 2014-06-30 15,780,002 $463,301,000 220,445
   VANGUARD GROUP INC 640 - 2014-06-30 12,792,442 $375,585,000 151,636
   BLACKROCK INSTITUTIONAL TRUST COMPANY 342 - 2014-06-30 11,546,739 $339,012,000 -80,481
   STATE STREET CORP 473 - 2014-06-30 10,842,250 $318,327,000 -293,571
   DAVIS SELECTED ADVISERS 33 - 2014-06-30 9,940,041 $291,822,000 -794,576
   MACQUARIE GROUP LTD 48 - 2014-06-30 8,630,591 $253,394,000 -20,135,597
   PRINCIPAL FINANCIAL GROUP INC 38 - 2014-06-30 8,453,824 $248,205,000 701
   BRAHMAN CAPITAL CORP. 4 - 2014-06-30 8,003,284 $234,976,000 882,100
   RS INVESTMENT MANAGEMENT CO LLC 1 - 2014-06-30 7,414,001 $217,669,000 -251,137
   ARTISAN PARTNERS LIMITED PARTNERSHIP 98 - 2014-06-30 7,393,357 $217,069,000 334,669
   HORIZON KINETICS LLC 12 - 2014-06-30 6,943,369 $203,857,000 -101,632
   INVESCO LTD 316 - 2014-06-30 6,228,312 $182,864,000 -522,124
   GOLDMAN SACHS GROUP INC/ 320 - 2014-06-30 6,120,805 $179,707,000 -2,649,318
   D E SHAW & CO INC 62 - 2014-06-30 5,779,550 $169,687,000 1,486,370
   DIMENSIONAL FUND ADVISORS INC 134 - 2014-06-30 5,710,999 $167,662,000 124,872
   WEITZ WALLACE R & CO -- Notable Guru -- 5 - 2014-06-30 5,157,265 $151,417,000 96,735
   SARBIT ADVISORY SERVICES INC. 4 - 2014-06-30 4,145,500 $138,724,000 4,100,500
   OWL CREEK ASSET MANAGEMENT, L.P. 6 *New 2014-06-30 4,470,733 $131,261,000 4,470,733
   FPR PARTNERS LLC 10 - 2014-06-30 4,432,838 $130,148,000 -394,100
   TIAA CREF INVESTMENT MANAGEMENT LLC 258 - 2014-06-30 4,160,279 $122,146,000 -1,032,530
   BLACKROCK FUND ADVISORS 844 - 2014-06-30 3,552,719 $104,308,000 -68,222
   LOOMIS SAYLES & CO L P 69 - 2014-06-30 3,285,633 $96,467,000 -608,188
   UNITED STATES STEEL & CARNEGIE PENSION FD 22 - 2014-06-30 3,106,172 $91,197,000 0
   NORTHERN TRUST CORP 519 - 2014-06-30 3,019,283 $88,646,000 -146,673
   YACKTMAN ASSET MANAGEMENT CO/IL 35 - 2014-06-30 2,941,301 $86,357,000 0
   MAKAIRA PARTNERS LLC 3 - 2014-06-30 2,881,742 $84,608,000 -26,423
   OSTERWEIS CAPITAL MANAGEMENT INC 21 - 2014-06-30 2,870,096 $84,266,000 101,470
   BLACKROCK GROUP LTD 431 - 2014-06-30 2,830,155 $83,094,000 73,574
   ALLIANCEBERNSTEIN L.P. 332 - 2014-06-30 2,726,242 $80,042,000 -1,472,868
   BANK OF NEW YORK MELLON CORP 691 - 2014-06-30 2,619,789 $76,918,000 -201,860
   FINDLAY PARK PARTNERS LLP 54 - 2014-06-30 2,572,856 $75,539,000 0
   GEODE CAPITAL MANAGEMENT LLC 384 - 2014-06-30 2,507,018 $73,588,000 7,155
   JANA PARTNERS LLC 30 - 2014-06-30 2,440,166 $71,643,000 -1,392,682
   LYRICAL ASSET MANAGEMENT LP 15 - 2014-06-30 2,336,228 $68,592,000 469,359
   GAMCO INVESTORS INC ET AL 83 - 2014-06-30 2,218,246 $65,128,000 1,096,711
   INTERNATIONAL VALUE ADVISERS, LLC 26 - 2014-06-30 2,159,331 $63,398,000 48,973
   MITSUBISHI UFJ TRUST & BANKING CORP 182 - 2014-06-30 2,054,192 $60,311,000 441,801
   LEGAL & GENERAL GROUP PLC 318 - 2014-06-30 2,043,781 $60,005,000 -21,856
   SAMLYN CAPITAL LLC 30 - 2014-06-30 1,889,909 $55,487,000 -1,016,500
   TEACHERS ADVISORS INC 240 - 2014-06-30 1,836,979 $53,934,000 -465,262
   PORTER ORLIN LLC 23 - 2014-06-30 1,720,000 $50,499,000 -25,000
   WHITE ELM CAPITAL, LLC 11 - 2014-06-30 1,677,576 $49,254,000 -124,889
   FEDERATED INVESTORS INC /PA/ 127 - 2014-06-30 1,641,620 $48,198,000 30,269
   SCHWAB CHARLES INVESTMENT MANAGEMENT INC 229 - 2014-03-31 1,629,420 $47,042,000 -295,659
   PARAMETRIC PORTFOLIO ASSOCIATES 205 - 2014-06-30 1,572,325 $46,163,000 164,447
   MILLENNIUM MANAGEMENT LLC 155 - 2014-06-30 1,498,840 $44,006,000 1,498,840
   RENAISSANCE TECHNOLOGIES LLC 218 - 2014-06-30 1,470,250 $43,167,000 835,874
   FRESHFORD CAPITAL MANAGEMENT, LLC 4 - 2014-06-30 1,442,303 $42,346,000 72,734
   CORSAIR CAPITAL MANAGEMENT LLC 9 - 2014-06-30 1,401,581 $41,150,000 27,029
   CALIFORNIA PUBLIC EMPLOYEES RETIREMENT SYSTEM 350 - 2014-06-30 1,395,050 $40,959,000 -50,300
   PASSPORT CAPITAL, LLC 29 - 2014-06-30 1,392,323 $40,879,000 -1,710,664
   GABELLI FUNDS LLC 149 - 2014-06-30 1,351,100 $39,668,000 673,550
   BLACKROCK INC. 340 - 2014-06-30 1,340,780 $39,365,000 53,870
   DEUTSCHE BANK AG 611 - 2014-06-30 1,330,753 $39,069,000 758,785
   POLAR CAPITAL LLP 28 - 2014-06-30 1,319,453 $38,739,000 -809,527
   SCOPUS ASSET MANAGEMENT LP 31 - 2014-06-30 1,306,730 $38,366,000 -141,170
   UBS GLOBAL ASSET MANAGEMENT AMERICAS INC 484 - 2014-06-30 1,269,775 $37,280,000 3,694
   NEW SOUTH CAPITAL MANAGEMENT INC 40 - 2014-06-30 1,258,762 $36,957,000 1,902
   WELLS FARGO & CO/MN 941 - 2014-06-30 1,227,864 $36,050,000 -371,821
   ACADIAN ASSET MANAGEMENT LLC 150 - 2014-06-30 1,187,210 $34,856,000 -499,406
   LOCUST WOOD CAPITAL ADVISERS LLC 3 - 2014-06-30 1,144,794 $33,611,000 -46,340
   SUMITOMO MITSUI TRUST HOLDINGS, INC. 337 - 2014-06-30 1,132,195 $33,241,000 -45,014
   EAGLE ASSET MANAGEMENT INC 176 - 2014-06-30 1,100,596 $32,313,000 -341,724
   FIRST MANHATTAN CO 92 - 2014-06-30 1,061,830 $31,175,000 -79,618
   CITADEL ADVISORS LLC 365 - 2014-06-30 1,058,271 $31,071,000 -56,451
   CREDIT SUISSE/ 597 - 2014-06-30 1,045,679 $30,701,000 139,268
   MORGAN STANLEY 1118 - 2014-06-30 1,015,144 $29,804,000 59,121
   STONERISE CAPITAL MANAGEMENT, LLC 3 - 2014-06-30 1,000,000 $29,360,000 -100,000
   WALLACE CAPITAL MANAGEMENT INC. 5 - 2014-06-30 996,848 $29,267,000 58,161
   Tyrian Investments L.P. 16 - 2014-06-30 954,624 $28,028,000 41,592
   HIGHFIELDS CAPITAL MANAGEMENT LP 67 - 2014-06-30 926,000 $27,187,000 0
   CLOUGH CAPITAL PARTNERS L P 37 - 2014-06-30 914,586 $26,852,000 -253,400
   CALIFORNIA STATE TEACHERS RETIREMENT SYSTEM 296 - 2014-06-30 896,082 $26,309,000 -9,800
   STATE BOARD OF ADMINISTRATION OF FLORIDA RETIREMEN 257 - 2014-06-30 851,136 $24,989,000 -40,899
   IVORY INVESTMENT MANAGEMENT LP 28 - 2014-06-30 814,993 $23,928,000 -15,731
   MANAGED ACCOUNT ADVISORS LLC 620 - 2014-06-30 786,313 $23,086,000 22,770
   RUSSELL FRANK CO/ 511 - 2014-06-30 817,197 $22,905,000 -61,811
   TWO SIGMA INVESTMENTS LLC 260 - 2014-06-30 772,707 $22,687,000 648,863
   FAIRVIEW CAPITAL INVESTMENT MANAGEMENT 19 - 2014-06-30 755,569 $22,184,000 -320,257
   LOS ANGELES CAPITAL MANAGEMENT & EQUITY RESEARCH I 149 - 2014-06-30 730,577 $21,450,000 -257,067
   EMINENCE CAPITAL LLC 57 *New 2014-06-30 725,000 $21,286,000 725,000
   S&CO INC 11 - 2014-06-30 721,407 $21,181,000 -7,320
   MARKSTON INTERNATIONAL LLC 22 - 2014-06-30 682,282 $20,032,000 -7,390
   MIZUHO TRUST & BANKING CO., LTD. 321 - 2014-06-30 660,214 $19,060,000 0
   OXFORD ASSET MANAGEMENT 11 - 2014-06-30 653,253 $19,003,000 -361,032
   UBS OCONNOR LLC 66 - 2014-06-30 638,829 $18,756,000 638,829
   QVT FINANCIAL LP 29 - 2014-06-30 634,400 $18,626,000 293,700
   FORT HOOSAC MANAGEMENT, LLC 6 - 2014-06-30 588,700 $17,284,000 0
   SEVEN LOCKS CAPITAL MANAGEMENT LP 9 - 2014-06-30 588,029 $17,265,000 27,750
   STALEY CAPITAL ADVISERS INC 20 - 2014-06-30 550,000 $16,148,000 73,076
   J P MORGAN CHASE & CO 1410 - 2014-06-30 522,977 $15,354,000 -56,536
   FOUNDATION ASSET MANAGEMENT, LLC 9 - 2014-06-30 518,890 $15,235,000 -19,667
   APG ALL PENSIONS GROUP 493 - 2014-06-30 500,554 $14,696,000 71,389
   SG AMERICAS SECURITIES LLC 225 - 2014-06-30 494,117 $14,507,000 -127,904
   BLACKROCK ADVISORS LLC 649 - 2014-06-30 480,843 $14,118,000 0

  100 Records found
  1    
  Page 1 of 1
Free Registration Required For Full Results